Time;durP1;ratioP1;P1;durP2;ratioP2;P2;SDS_P1;SDS_P2;PMS_P1;PMS_P2;Temp;Humidity;BMP_temperature;BMP_pressure;BME280_temperature;BME280_humidity;BME280_pressure;Samples;Min_cycle;Max_cycle;Signal;HPM_P1;HPM_P2
2021/04/10 00:01:53;;;;;;;13.40;9.77;;;10.10;99.90;;;;;;5033289;28;20038;-61
2021/04/10 00:04:18;;;;;;;11.27;9.10;;;10.10;99.90;;;;;;5034581;28;20068;-61
2021/04/10 00:06:44;;;;;;;19.92;10.02;;;10.00;99.90;;;;;;5034733;28;20033;-60
2021/04/10 00:09:10;;;;;;;12.82;9.43;;;9.90;99.90;;;;;;5034704;28;20351;-60
2021/04/10 00:11:36;;;;;;;15.48;9.80;;;9.80;99.90;;;;;;5034297;28;20057;-60
2021/04/10 00:14:05;;;;;;;14.25;10.23;;;9.70;99.90;;;;;;5033539;28;20470;-60
2021/04/10 00:16:31;;;;;;;12.13;10.05;;;9.80;99.90;;;;;;5033324;28;20025;-61
2021/04/10 00:18:57;;;;;;;15.80;10.55;;;9.90;99.90;;;;;;5033807;28;20053;-60
2021/04/10 00:21:22;;;;;;;13.15;10.35;;;10.00;99.90;;;;;;5034447;28;20025;-60
2021/04/10 00:23:48;;;;;;;14.52;10.02;;;10.00;99.90;;;;;;5034507;28;20458;-61
2021/04/10 00:26:14;;;;;;;16.52;10.73;;;10.10;99.90;;;;;;5034415;28;20053;-60
2021/04/10 00:28:40;;;;;;;14.57;10.38;;;10.10;99.90;;;;;;5033215;28;20032;-61
2021/04/10 00:31:06;;;;;;;15.43;10.48;;;10.20;99.90;;;;;;5034733;28;20494;-61
2021/04/10 00:33:37;;;;;;;17.40;11.07;;;10.40;99.90;;;;;;5034074;28;20041;-61
2021/04/10 00:36:04;;;;;;;14.02;10.52;;;10.60;99.90;;;;;;5034416;28;20041;-62
2021/04/10 00:38:31;;;;;;;15.35;10.18;;;10.70;99.90;;;;;;5034276;28;20470;-61
2021/04/10 00:40:57;;;;;;;16.17;10.00;;;10.50;99.90;;;;;;5034246;28;20026;-61
2021/04/10 00:43:24;;;;;;;13.57;10.85;;;10.30;99.90;;;;;;5034461;28;20177;-61
2021/04/10 00:45:50;;;;;;;13.30;10.48;;;10.10;99.90;;;;;;5032840;28;20022;-61
2021/04/10 00:48:15;;;;;;;15.93;10.82;;;9.90;99.90;;;;;;5034149;28;20030;-61
2021/04/10 00:50:41;;;;;;;16.08;11.48;;;9.80;99.90;;;;;;5034069;28;20061;-61
2021/04/10 00:53:07;;;;;;;17.75;10.73;;;9.70;99.90;;;;;;5032926;28;20040;-61
2021/04/10 00:55:35;;;;;;;15.70;11.00;;;9.70;99.90;;;;;;5033686;28;20079;-61
2021/04/10 00:58:01;;;;;;;19.27;10.30;;;9.60;99.90;;;;;;5034065;28;20029;-61
2021/04/10 01:00:26;;;;;;;15.95;11.50;;;9.50;99.90;;;;;;5034085;28;20033;-61
2021/04/10 01:02:52;;;;;;;14.75;11.70;;;9.40;99.90;;;;;;5034005;28;20096;-61
2021/04/10 01:05:18;;;;;;;16.33;11.43;;;9.30;99.90;;;;;;5033917;28;20382;-61
2021/04/10 01:07:43;;;;;;;16.38;11.98;;;9.30;99.90;;;;;;5032428;28;20482;-61
2021/04/10 01:10:10;;;;;;;18.20;11.93;;;9.30;99.90;;;;;;5033974;28;20022;-61
2021/04/10 01:13:15;;;;;;;18.80;11.30;;;9.30;99.90;;;;;;5033402;28;20030;-61
2021/04/10 01:15:50;;;;;;;22.35;13.05;;;9.30;99.90;;;;;;5033850;28;20036;-61
2021/04/10 01:18:21;;;;;;;15.93;11.70;;;9.30;99.90;;;;;;5033914;28;20025;-61
2021/04/10 01:21:06;;;;;;;16.15;11.48;;;9.20;99.90;;;;;;5033532;28;20029;-61
2021/04/10 01:24:00;;;;;;;18.52;11.85;;;9.20;99.90;;;;;;5033622;28;20297;-61
2021/04/10 01:26:47;;;;;;;14.80;11.57;;;9.20;99.90;;;;;;5033579;28;20021;-61
2021/04/10 01:29:15;;;;;;;13.65;11.45;;;9.20;99.90;;;;;;5033405;28;20029;-61
2021/04/10 01:31:46;;;;;;;15.45;11.55;;;9.30;99.90;;;;;;5033300;28;20104;-61
2021/04/10 01:34:17;;;;;;;19.30;11.57;;;9.30;99.90;;;;;;5033302;28;20100;-61
2021/04/10 01:36:45;;;;;;;18.58;11.52;;;9.20;99.90;;;;;;5033159;28;20076;-61
2021/04/10 01:39:13;;;;;;;15.30;11.65;;;9.20;99.90;;;;;;5033215;28;20124;-61
2021/04/10 01:41:46;;;;;;;17.88;11.65;;;9.10;99.90;;;;;;5033047;28;20017;-61
2021/04/10 01:44:14;;;;;;;16.88;11.27;;;9.10;99.90;;;;;;5033682;28;20053;-61
2021/04/10 01:46:40;;;;;;;14.75;10.48;;;9.10;99.90;;;;;;5033425;28;20018;-61
2021/04/10 01:49:06;;;;;;;15.15;10.75;;;9.00;99.90;;;;;;5032097;28;20025;-61
2021/04/10 01:51:33;;;;;;;15.90;10.82;;;9.00;99.90;;;;;;5032022;28;20026;-61
2021/04/10 01:54:00;;;;;;;17.33;11.10;;;8.90;99.90;;;;;;5031484;28;20025;-61
2021/04/10 01:56:29;;;;;;;15.68;9.60;;;8.90;99.90;;;;;;5032733;28;20037;-61
2021/04/10 01:58:55;;;;;;;15.40;10.30;;;8.90;99.90;;;;;;5032922;28;20466;-61
2021/04/10 02:01:23;;;;;;;14.38;10.00;;;8.90;99.90;;;;;;5032877;28;20033;-61
2021/04/10 02:03:50;;;;;;;14.52;9.52;;;8.90;99.90;;;;;;5032756;28;20108;-61
2021/04/10 02:06:16;;;;;;;14.85;9.73;;;8.90;99.90;;;;;;5033434;28;20021;-61
2021/04/10 02:08:44;;;;;;;15.13;9.70;;;8.90;99.90;;;;;;5032843;28;20025;-61
2021/04/10 02:11:11;;;;;;;16.40;10.30;;;8.90;99.90;;;;;;5031011;28;20533;-61
2021/04/10 02:13:38;;;;;;;13.75;9.88;;;8.90;99.90;;;;;;5032664;28;20040;-61
2021/04/10 02:16:04;;;;;;;17.40;9.45;;;8.80;99.90;;;;;;5032370;28;20482;-61
2021/04/10 02:18:30;;;;;;;15.55;9.60;;;8.70;99.90;;;;;;5032165;28;20025;-60
2021/04/10 02:20:58;;;;;;;15.27;10.32;;;8.70;99.90;;;;;;5032289;28;20543;-61
2021/04/10 02:23:24;;;;;;;13.23;10.00;;;8.70;99.90;;;;;;5030936;28;20032;-61
2021/04/10 02:25:50;;;;;;;14.40;9.43;;;8.60;99.90;;;;;;5032097;28;20025;-60
2021/04/10 02:28:15;;;;;;;13.27;9.63;;;8.60;99.90;;;;;;5032003;28;20108;-61
2021/04/10 02:30:41;;;;;;;16.58;10.10;;;8.60;99.90;;;;;;5032104;28;20104;-60
2021/04/10 02:33:46;;;;;;;16.95;10.35;;;8.60;99.90;;;;;;5030593;28;20041;-60
2021/04/10 02:36:16;;;;;;;16.92;10.32;;;8.60;99.90;;;;;;5031542;28;20100;-60
2021/04/10 02:38:42;;;;;;;17.38;9.98;;;8.50;99.90;;;;;;5032024;28;20032;-61
2021/04/10 02:41:15;;;;;;;15.27;10.40;;;8.50;99.90;;;;;;5032039;28;20374;-61
2021/04/10 02:43:45;;;;;;;15.93;10.48;;;8.50;99.90;;;;;;5031759;28;20025;-61
2021/04/10 02:46:13;;;;;;;17.17;10.02;;;8.40;99.90;;;;;;5032374;28;20060;-61
2021/04/10 02:48:49;;;;;;;18.08;11.32;;;8.40;99.90;;;;;;5031739;28;20029;-61
2021/04/10 02:51:15;;;;;;;15.43;10.52;;;8.40;99.90;;;;;;5031625;28;20063;-61
2021/04/10 02:53:42;;;;;;;21.88;12.07;;;8.40;99.90;;;;;;5031652;28;20044;-61
2021/04/10 02:56:12;;;;;;;19.13;12.05;;;8.40;99.90;;;;;;5030191;28;20088;-61
2021/04/10 02:58:39;;;;;;;22.38;12.90;;;8.50;99.90;;;;;;5030606;28;20067;-61
2021/04/10 03:01:05;;;;;;;19.85;12.10;;;8.60;99.90;;;;;;5031568;28;20029;-61
2021/04/10 03:03:34;;;;;;;21.85;13.43;;;8.60;99.90;;;;;;5031747;28;20029;-61
2021/04/10 03:06:02;;;;;;;22.60;13.63;;;8.60;99.90;;;;;;5030316;28;20026;-61
2021/04/10 03:08:28;;;;;;;22.00;13.15;;;8.60;99.90;;;;;;5031606;28;20040;-61
2021/04/10 03:10:55;;;;;;;23.55;13.75;;;8.60;99.90;;;;;;5031471;28;20041;-61
2021/04/10 03:13:22;;;;;;;25.30;14.75;;;8.50;99.90;;;;;;5031439;28;20021;-61
2021/04/10 03:15:52;;;;;;;25.80;15.80;;;8.60;99.90;;;;;;5031518;28;20445;-61
2021/04/10 03:18:19;;;;;;;24.13;16.23;;;8.50;99.90;;;;;;5031698;28;20053;-61
2021/04/10 03:20:45;;;;;;;26.88;16.50;;;8.50;99.90;;;;;;5031338;28;20026;-61
2021/04/10 03:23:12;;;;;;;34.50;17.95;;;8.40;99.90;;;;;;5031383;28;20034;-61
2021/04/10 03:25:38;;;;;;;37.78;19.58;;;8.40;99.90;;;;;;5030240;28;20034;-61
2021/04/10 03:28:05;;;;;;;34.13;18.90;;;8.40;99.90;;;;;;5031706;28;20022;-61
2021/04/10 03:30:31;;;;;;;35.05;21.52;;;8.40;99.90;;;;;;5031346;28;20026;-61
2021/04/10 03:32:57;;;;;;;40.08;20.80;;;8.40;99.90;;;;;;5031221;28;20029;-61
2021/04/10 03:35:27;;;;;;;38.47;20.73;;;8.40;99.90;;;;;;5029938;28;20030;-61
2021/04/10 03:37:54;;;;;;;38.50;21.88;;;8.40;99.90;;;;;;5030788;28;20029;-61
2021/04/10 03:40:20;;;;;;;34.90;21.75;;;8.40;99.90;;;;;;5031183;28;20018;-61
2021/04/10 03:42:46;;;;;;;50.00;22.48;;;8.40;99.90;;;;;;5031363;28;20230;-61
2021/04/10 03:45:15;;;;;;;45.05;22.52;;;8.40;99.90;;;;;;5031099;28;20377;-61
2021/04/10 03:47:41;;;;;;;40.63;24.42;;;8.40;99.90;;;;;;5030031;28;20117;-61
2021/04/10 03:50:08;;;;;;;40.13;24.23;;;8.40;99.90;;;;;;5031199;28;20029;-61
2021/04/10 03:52:34;;;;;;;43.47;24.30;;;8.40;99.90;;;;;;5031471;28;20028;-61
2021/04/10 03:55:00;;;;;;;41.50;24.00;;;8.40;99.90;;;;;;5030702;28;20060;-61
2021/04/10 03:57:27;;;;;;;45.38;25.50;;;8.40;99.90;;;;;;5031145;28;20057;-61
2021/04/10 03:59:52;;;;;;;43.35;25.13;;;8.40;99.90;;;;;;5029742;28;20025;-61
2021/04/10 04:02:18;;;;;;;42.08;25.77;;;8.40;99.90;;;;;;5029703;28;20083;-61
2021/04/10 04:04:43;;;;;;;40.42;24.75;;;8.40;99.90;;;;;;5034979;28;20296;-61
2021/04/10 04:07:09;;;;;;;42.90;24.83;;;8.30;99.90;;;;;;5035127;28;20022;-61
2021/04/10 04:09:36;;;;;;;46.40;25.60;;;8.30;99.90;;;;;;5035003;28;20538;-61
2021/04/10 04:12:05;;;;;;;46.05;26.52;;;8.20;99.90;;;;;;5035021;28;20042;-61
2021/04/10 04:14:31;;;;;;;41.17;25.67;;;8.30;99.90;;;;;;5034808;28;20026;-61
2021/04/10 04:16:57;;;;;;;43.92;25.20;;;8.30;99.90;;;;;;5034641;28;20604;-61
2021/04/10 04:19:22;;;;;;;46.33;25.70;;;8.30;99.90;;;;;;5033170;28;20022;-61
2021/04/10 04:21:48;;;;;;;44.08;25.23;;;8.30;99.90;;;;;;5034543;28;20024;-61
2021/04/10 04:24:14;;;;;;;42.67;24.92;;;8.30;99.90;;;;;;5033040;28;20028;-61
2021/04/10 04:26:39;;;;;;;45.28;26.35;;;8.30;99.90;;;;;;5033329;28;20112;-61
2021/04/10 04:29:05;;;;;;;42.47;24.33;;;8.40;99.90;;;;;;5033118;28;20423;-61
2021/04/10 04:31:31;;;;;;;41.45;25.55;;;8.30;99.90;;;;;;5034001;28;20028;-60
2021/04/10 04:33:56;;;;;;;42.40;26.17;;;8.30;99.90;;;;;;5033907;28;20029;-61
2021/04/10 04:36:22;;;;;;;43.60;25.30;;;8.30;99.90;;;;;;5034423;28;20100;-61
2021/04/10 04:38:48;;;;;;;45.42;25.30;;;8.30;99.90;;;;;;5034151;28;20026;-61
2021/04/10 04:41:13;;;;;;;42.47;24.95;;;8.20;99.90;;;;;;5032717;28;20132;-61
2021/04/10 04:43:39;;;;;;;45.28;26.05;;;8.20;99.90;;;;;;5034216;28;20079;-61
2021/04/10 04:46:04;;;;;;;41.10;24.92;;;8.20;99.90;;;;;;5033094;28;20094;-61
2021/04/10 04:48:30;;;;;;;35.75;22.70;;;8.20;99.90;;;;;;5034119;28;20059;-62
2021/04/10 04:50:56;;;;;;;38.25;24.00;;;8.10;99.90;;;;;;5033962;28;20135;-61
2021/04/10 04:53:22;;;;;;;46.38;25.75;;;8.10;99.90;;;;;;5033651;28;20374;-61
2021/04/10 04:55:48;;;;;;;41.15;25.15;;;8.30;99.90;;;;;;5033233;28;20489;-60
2021/04/10 04:58:13;;;;;;;43.10;26.35;;;8.30;99.90;;;;;;5034192;28;20559;-61
2021/04/10 05:00:39;;;;;;;49.70;27.40;;;8.30;99.90;;;;;;5034130;28;20112;-61
2021/04/10 05:03:05;;;;;;;43.55;27.00;;;8.30;99.90;;;;;;5032539;28;20021;-60
2021/04/10 05:05:30;;;;;;;42.22;25.95;;;8.30;99.90;;;;;;5033923;28;20033;-60
2021/04/10 05:07:56;;;;;;;46.35;27.55;;;8.10;99.90;;;;;;5033931;28;20029;-61
2021/04/10 05:10:21;;;;;;;43.17;26.45;;;8.30;99.90;;;;;;5033687;28;20034;-61
2021/04/10 05:12:47;;;;;;;46.03;26.52;;;8.20;99.90;;;;;;5033613;28;20079;-61
2021/04/10 05:15:13;;;;;;;40.75;25.17;;;8.20;99.90;;;;;;5032983;28;20017;-61
2021/04/10 05:17:39;;;;;;;46.70;26.83;;;8.00;99.90;;;;;;5033891;28;20033;-61
2021/04/10 05:20:07;;;;;;;40.17;25.27;;;8.20;99.90;;;;;;5032614;28;20063;-61
2021/04/10 05:22:33;;;;;;;40.22;24.35;;;8.10;99.90;;;;;;5033244;28;20018;-61
2021/04/10 05:24:59;;;;;;;44.13;24.90;;;8.00;99.90;;;;;;5032872;28;20048;-61
2021/04/10 05:27:24;;;;;;;44.30;26.77;;;8.20;99.90;;;;;;5032522;28;20428;-61
2021/04/10 05:29:50;;;;;;;42.45;25.33;;;8.30;99.90;;;;;;5033583;28;20083;-61
2021/04/10 05:32:16;;;;;;;48.58;25.25;;;8.20;99.90;;;;;;5033456;28;20060;-61
2021/04/10 05:34:41;;;;;;;40.80;24.75;;;8.10;99.90;;;;;;5033717;28;20108;-60
2021/04/10 05:37:07;;;;;;;41.65;24.45;;;7.90;99.90;;;;;;5033787;28;20033;-61
2021/04/10 05:39:32;;;;;;;38.42;23.88;;;8.00;99.90;;;;;;5033780;28;20025;-61
2021/04/10 05:41:58;;;;;;;42.78;25.85;;;7.90;99.90;;;;;;5033941;28;20018;-61
2021/04/10 05:44:24;;;;;;;45.28;26.33;;;8.00;99.90;;;;;;5033642;28;20099;-60
2021/04/10 05:46:49;;;;;;;42.75;25.27;;;8.10;99.90;;;;;;5033620;28;20374;-61
2021/04/10 05:49:15;;;;;;;44.13;25.50;;;8.00;99.90;;;;;;5032647;28;20119;-61
2021/04/10 05:51:40;;;;;;;48.45;26.83;;;7.90;99.90;;;;;;5032898;28;20386;-60
2021/04/10 05:54:08;;;;;;;42.55;25.25;;;8.00;99.90;;;;;;5032970;28;20025;-61
2021/04/10 05:56:33;;;;;;;41.80;25.35;;;7.90;99.90;;;;;;5032589;28;20073;-61
2021/04/10 05:58:59;;;;;;;42.90;26.05;;;7.90;99.90;;;;;;5032990;28;20131;-60
2021/04/10 06:01:27;;;;;;;43.63;25.95;;;8.00;99.90;;;;;;5031258;28;20080;-61
2021/04/10 06:03:57;;;;;;;44.78;24.98;;;8.00;99.90;;;;;;5032853;28;20580;-61
2021/04/10 06:06:23;;;;;;;41.63;24.77;;;8.10;99.90;;;;;;5032735;28;20116;-61
2021/04/10 06:08:49;;;;;;;41.47;24.77;;;8.00;99.90;;;;;;5032683;28;20533;-61
2021/04/10 06:11:15;;;;;;;43.10;24.95;;;8.00;99.90;;;;;;5032707;28;20025;-61
2021/04/10 06:13:41;;;;;;;49.88;26.48;;;8.00;99.90;;;;;;5032449;28;20106;-61
2021/04/10 06:16:07;;;;;;;49.08;26.02;;;8.10;99.90;;;;;;5032725;28;20055;-61
2021/04/10 06:18:34;;;;;;;45.28;26.65;;;8.10;99.90;;;;;;5031860;28;20056;-60
2021/04/10 06:20:59;;;;;;;47.00;26.73;;;8.10;99.90;;;;;;5032099;28;20033;-61
2021/04/10 06:23:25;;;;;;;52.97;28.48;;;7.90;99.90;;;;;;5031220;28;20033;-61
2021/04/10 06:25:50;;;;;;;51.58;29.13;;;7.90;99.90;;;;;;5031009;28;20037;-61
2021/04/10 06:28:16;;;;;;;55.03;30.70;;;8.00;99.90;;;;;;5031235;28;20037;-60
2021/04/10 06:30:42;;;;;;;57.60;31.35;;;7.90;99.90;;;;;;5032505;28;20099;-60
2021/04/10 06:33:07;;;;;;;62.25;31.52;;;7.90;99.90;;;;;;5032286;28;20545;-60
2021/04/10 06:35:33;;;;;;;59.08;33.05;;;7.80;99.90;;;;;;5032657;28;20079;-60
2021/04/10 06:37:58;;;;;;;56.50;33.10;;;7.80;99.90;;;;;;5031007;28;20473;-61
2021/04/10 06:40:25;;;;;;;57.28;32.58;;;7.70;99.90;;;;;;5032082;28;20060;-61
2021/04/10 06:42:50;;;;;;;64.10;33.03;;;7.80;99.90;;;;;;5032181;28;20078;-60
2021/04/10 06:45:16;;;;;;;64.72;33.75;;;7.80;99.90;;;;;;5032290;28;20037;-61
2021/04/10 06:47:44;;;;;;;64.47;32.53;;;7.90;99.90;;;;;;5032580;28;20029;-60
2021/04/10 06:50:11;;;;;;;62.03;32.28;;;7.90;99.90;;;;;;5031396;28;20049;-60
2021/04/10 06:52:40;;;;;;;55.03;32.05;;;7.80;99.90;;;;;;5031291;28;20032;-60
2021/04/10 06:55:13;;;;;;;55.70;32.25;;;7.80;99.90;;;;;;5029892;28;20029;-60
2021/04/10 06:58:03;;;;;;;57.65;31.40;;;7.80;99.90;;;;;;5031484;28;20065;-60
2021/04/10 07:00:33;;;;;;;59.60;32.53;;;7.90;99.90;;;;;;5031282;28;20061;-59
2021/04/10 07:03:01;;;;;;;63.53;33.10;;;8.00;99.90;;;;;;5031448;28;20037;-58
2021/04/10 07:05:28;;;;;;;62.15;32.50;;;8.00;99.90;;;;;;5031146;28;20051;-59
2021/04/10 07:07:54;;;;;;;57.38;32.90;;;8.00;99.90;;;;;;5031433;28;20026;-59
2021/04/10 07:10:20;;;;;;;62.35;33.97;;;7.90;99.90;;;;;;5031272;28;20029;-59
2021/04/10 07:12:46;;;;;;;63.50;34.45;;;7.90;99.90;;;;;;5031637;28;20385;-58
2021/04/10 07:15:14;;;;;;;70.28;35.25;;;7.90;99.90;;;;;;5031261;28;20029;-58
2021/04/10 07:17:40;;;;;;;64.93;35.08;;;7.90;99.90;;;;;;5029775;28;20069;-58
2021/04/10 07:20:22;;;;;;;57.58;31.92;;;7.90;99.90;;;;;;5029735;28;20083;-59
2021/04/10 07:23:11;;;;;;;60.97;32.40;;;7.80;99.90;;;;;;5031010;28;20378;-58
2021/04/10 07:25:39;;;;;;;57.55;31.08;;;7.80;99.90;;;;;;5030654;28;20074;-59
2021/04/10 07:28:23;;;;;;;55.78;32.25;;;7.90;99.90;;;;;;5029852;28;20414;-58
2021/04/10 07:31:07;;;;;;;66.55;35.28;;;8.00;99.90;;;;;;5030669;28;20498;-59
2021/04/10 07:33:38;;;;;;;62.47;33.75;;;8.10;99.90;;;;;;5032148;28;20025;-58
2021/04/10 07:36:07;;;;;;;65.70;37.40;;;8.20;99.90;;;;;;5031048;28;20033;-59
2021/04/10 07:38:41;;;;;;;65.78;35.15;;;8.20;99.90;;;;;;5033173;28;20096;-58
2021/04/10 07:41:18;;;;;;;66.93;36.17;;;8.10;99.90;;;;;;5035392;28;20038;-58
2021/04/10 07:43:44;;;;;;;66.80;36.63;;;8.20;99.90;;;;;;5035206;28;20026;-58
2021/04/10 07:46:13;;;;;;;68.18;35.05;;;8.20;99.90;;;;;;5034926;28;20028;-58
2021/04/10 07:48:57;;;;;;;65.78;36.45;;;8.30;99.90;;;;;;5034812;28;20432;-58
2021/04/10 07:51:23;;;;;;;65.47;33.88;;;8.30;99.90;;;;;;5034696;28;20049;-59
2021/04/10 07:53:48;;;;;;;60.83;35.15;;;8.10;99.90;;;;;;5034226;28;20072;-59
2021/04/10 07:56:14;;;;;;;63.92;36.13;;;8.10;99.90;;;;;;5034089;28;20398;-58
2021/04/10 07:58:39;;;;;;;61.28;34.08;;;8.20;99.90;;;;;;5034374;28;20038;-58
2021/04/10 08:01:08;;;;;;;69.80;38.92;;;8.20;99.90;;;;;;5034827;28;20470;-59
2021/04/10 08:03:51;;;;;;;56.58;35.25;;;8.30;99.90;;;;;;5034575;28;20025;-59
2021/04/10 08:06:20;;;;;;;60.17;33.95;;;8.20;99.90;;;;;;5034753;28;20054;-59
2021/04/10 08:08:51;;;;;;;68.13;36.92;;;8.40;99.90;;;;;;5034345;28;20029;-58
2021/04/10 08:11:29;;;;;;;72.20;39.47;;;8.50;99.90;;;;;;5032922;28;20082;-58
2021/04/10 08:14:00;;;;;;;62.28;34.90;;;8.50;99.90;;;;;;5034094;28;20036;-59
2021/04/10 08:16:26;;;;;;;62.65;35.20;;;8.40;99.90;;;;;;5034097;28;20040;-58
2021/04/10 08:18:57;;;;;;;62.88;35.13;;;8.50;99.90;;;;;;5033852;28;20085;-59
2021/04/10 08:21:32;;;;;;;61.58;36.05;;;8.30;99.90;;;;;;5034076;28;20261;-59
2021/04/10 08:23:59;;;;;;;57.30;33.25;;;8.40;99.90;;;;;;5032316;28;20026;-59
2021/04/10 08:26:25;;;;;;;61.58;35.38;;;8.40;99.90;;;;;;5032737;28;20166;-59
2021/04/10 08:28:51;;;;;;;54.22;32.72;;;8.40;99.90;;;;;;5034322;28;20474;-59
2021/04/10 08:31:18;;;;;;;58.65;32.88;;;8.40;99.90;;;;;;5033696;28;20355;-59
2021/04/10 08:33:45;;;;;;;59.83;34.63;;;8.40;99.90;;;;;;5033384;28;20029;-59
2021/04/10 08:36:11;;;;;;;61.55;34.00;;;8.50;99.90;;;;;;5033876;28;20021;-59
2021/04/10 08:38:41;;;;;;;57.17;34.55;;;8.40;99.90;;;;;;5033657;28;20470;-58
2021/04/10 08:41:09;;;;;;;59.88;36.30;;;8.50;99.90;;;;;;5033930;28;20017;-59
2021/04/10 08:43:38;;;;;;;72.38;43.55;;;8.50;99.90;;;;;;5033705;28;20116;-58
2021/04/10 08:46:05;;;;;;;68.00;41.35;;;8.60;99.90;;;;;;5033951;28;20037;-58
2021/04/10 08:48:34;;;;;;;67.28;38.92;;;8.50;99.90;;;;;;5033616;28;20021;-58
2021/04/10 08:51:03;;;;;;;63.72;36.30;;;8.50;99.90;;;;;;5032470;28;20075;-58
2021/04/10 08:53:34;;;;;;;56.65;35.25;;;8.60;99.90;;;;;;5033276;28;20033;-58
2021/04/10 08:56:09;;;;;;;61.10;34.50;;;8.60;99.90;;;;;;5031800;28;20576;-58
2021/04/10 08:58:37;;;;;;;60.22;38.00;;;8.60;99.90;;;;;;5033405;28;20029;-58
2021/04/10 09:01:06;;;;;;;56.03;34.72;;;8.60;99.90;;;;;;5033483;28;20428;-59
2021/04/10 09:03:50;;;;;;;52.88;33.78;;;8.60;99.90;;;;;;5031734;28;20088;-59
2021/04/10 09:06:36;;;;;;;51.67;33.17;;;8.40;99.90;;;;;;5033205;28;20026;-59
2021/04/10 09:09:11;;;;;;;55.20;34.35;;;8.50;99.90;;;;;;5033062;28;20481;-59
2021/04/10 09:11:36;;;;;;;52.50;33.17;;;8.60;99.90;;;;;;5033588;28;20071;-59
2021/04/10 09:14:02;;;;;;;47.13;32.25;;;8.50;99.90;;;;;;5032944;28;20025;-59
2021/04/10 09:16:37;;;;;;;52.63;34.42;;;8.50;99.90;;;;;;5032929;28;20030;-59
2021/04/10 09:19:32;;;;;;;57.25;35.63;;;8.40;99.90;;;;;;5032836;28;20429;-59
2021/04/10 09:22:00;;;;;;;52.85;33.65;;;8.60;99.90;;;;;;5030839;28;20037;-58
2021/04/10 09:24:41;;;;;;;54.25;33.30;;;8.50;99.90;;;;;;5031157;28;20025;-58
2021/04/10 09:27:21;;;;;;;54.05;32.40;;;8.50;99.90;;;;;;5032802;28;20108;-58
2021/04/10 09:29:46;;;;;;;49.63;34.00;;;8.40;99.90;;;;;;5032873;28;20034;-58
2021/04/10 09:32:13;;;;;;;48.80;32.85;;;8.60;99.90;;;;;;5032820;28;20241;-58
2021/04/10 09:35:11;;;;;;;53.47;34.13;;;8.70;99.90;;;;;;5032985;28;20482;-58
2021/04/10 09:37:36;;;;;;;49.40;32.85;;;8.70;99.90;;;;;;5009884;28;20041;-58
2021/04/10 09:40:17;;;;;;;45.67;31.75;;;8.70;99.90;;;;;;5032507;28;20028;-58
2021/04/10 09:45:16;;;;;;;47.42;33.17;;;9.00;99.90;;;;;;5032171;28;20021;-58
2021/04/10 09:47:57;;;;;;;50.72;34.40;;;9.10;99.90;;;;;;5032211;28;20390;-59
2021/04/10 09:50:24;;;;;;;57.75;34.85;;;9.10;99.90;;;;;;5032463;28;20040;-59
2021/04/10 09:52:57;;;;;;;48.67;32.97;;;9.20;99.90;;;;;;5031876;28;20104;-58
2021/04/10 09:55:24;;;;;;;47.10;30.85;;;9.30;99.90;;;;;;5031580;28;20155;-59
2021/04/10 09:58:01;;;;;;;49.92;32.22;;;9.30;99.90;;;;;;5032334;28;20132;-59
2021/04/10 10:00:28;;;;;;;51.25;33.58;;;9.50;99.90;;;;;;5030611;28;20482;-58
2021/04/10 10:02:58;;;;;;;53.75;34.80;;;9.50;99.90;;;;;;5032107;28;20477;-58
2021/04/10 10:05:29;;;;;;;50.75;33.47;;;9.60;99.90;;;;;;5031990;28;20414;-58
2021/04/10 10:08:06;;;;;;;53.33;36.40;;;9.50;99.90;;;;;;5032022;28;20029;-58
2021/04/10 10:10:37;;;;;;;43.80;32.25;;;9.40;99.90;;;;;;5031879;28;20053;-58
2021/04/10 10:13:08;;;;;;;49.70;33.65;;;9.30;99.90;;;;;;5032002;28;20026;-57
2021/04/10 10:15:34;;;;;;;50.85;34.22;;;9.50;99.90;;;;;;5030414;28;20066;-57
2021/04/10 10:18:21;;;;;;;51.83;35.78;;;9.50;99.90;;;;;;5031702;28;20033;-57
2021/04/10 10:20:58;;;;;;;45.80;30.30;;;9.40;99.90;;;;;;5031652;28;20032;-57
2021/04/10 10:23:31;;;;;;;40.75;30.27;;;9.50;99.90;;;;;;5031379;28;20061;-57
2021/04/10 10:26:21;;;;;;;42.30;30.95;;;9.50;99.90;;;;;;5031855;28;20013;-57
2021/04/10 10:28:52;;;;;;;46.20;30.85;;;9.50;99.90;;;;;;5030149;28;20033;-57
2021/04/10 10:31:20;;;;;;;38.38;28.15;;;9.50;99.90;;;;;;5031435;28;20025;-57
2021/04/10 10:33:46;;;;;;;41.05;29.85;;;9.50;99.90;;;;;;5030077;28;20029;-57
2021/04/10 10:36:13;;;;;;;40.55;28.10;;;9.50;99.90;;;;;;5031384;28;20037;-57
2021/04/10 10:38:44;;;;;;;42.28;29.40;;;9.50;99.90;;;;;;5031086;28;20029;-57
2021/04/10 10:41:13;;;;;;;44.00;31.35;;;9.70;99.90;;;;;;5031182;28;20018;-57
2021/04/10 10:43:39;;;;;;;43.75;31.52;;;9.70;99.90;;;;;;5029919;28;20044;-57
2021/04/10 10:46:07;;;;;;;46.08;32.47;;;9.60;99.90;;;;;;5031500;28;20025;-57
2021/04/10 10:48:43;;;;;;;41.47;28.98;;;9.60;99.90;;;;;;5031269;28;20056;-57
2021/04/10 10:51:15;;;;;;;41.53;30.13;;;9.50;99.90;;;;;;5030094;28;20036;-57
2021/04/10 10:53:43;;;;;;;44.08;30.05;;;9.50;99.90;;;;;;5031010;28;20468;-57
2021/04/10 10:56:14;;;;;;;41.33;28.38;;;9.60;99.90;;;;;;5030886;28;20136;-57
2021/04/10 10:58:52;;;;;;;36.22;26.88;;;9.60;99.90;;;;;;5031182;28;20034;-57
2021/04/10 11:01:26;;;;;;;46.67;29.83;;;9.40;99.90;;;;;;5031289;28;20036;-57
2021/04/10 11:03:59;;;;;;;40.35;29.38;;;9.50;99.90;;;;;;5030819;28;20025;-57
2021/04/10 11:06:28;;;;;;;39.30;28.52;;;9.70;99.90;;;;;;5031245;28;20028;-57
2021/04/10 11:08:55;;;;;;;41.35;29.60;;;9.70;99.90;;;;;;5030800;28;20029;-57
2021/04/10 11:11:27;;;;;;;52.58;36.08;;;9.80;99.90;;;;;;5031031;28;20029;-57
2021/04/10 11:13:53;;;;;;;54.25;37.28;;;9.90;99.90;;;;;;5030316;28;20030;-57
2021/04/10 11:16:19;;;;;;;56.22;37.85;;;9.80;99.90;;;;;;5030860;28;20036;-57
2021/04/10 11:18:47;;;;;;;48.88;33.88;;;9.70;99.90;;;;;;5030746;28;20105;-57
2021/04/10 11:21:20;;;;;;;43.65;31.90;;;9.80;99.90;;;;;;5030704;28;20052;-57
2021/04/10 11:24:13;;;;;;;48.55;33.70;;;9.80;99.90;;;;;;5030649;28;20504;-57
2021/04/10 11:26:49;;;;;;;;;;;9.80;99.90;;;;;;5031204;28;20022;-57
2021/04/10 11:29:18;;;;;;;44.67;31.85;;;9.80;99.90;;;;;;5030937;28;19948;-57
2021/04/10 11:32:10;;;;;;;40.08;30.40;;;9.80;99.90;;;;;;5030576;28;20143;-57
2021/04/10 11:34:36;;;;;;;54.05;33.42;;;9.80;99.90;;;;;;5029123;28;20029;-57
2021/04/10 11:37:03;;;;;;;45.60;32.67;;;9.80;99.90;;;;;;5030631;28;20025;-57
2021/04/10 11:39:30;;;;;;;47.10;33.83;;;9.70;99.90;;;;;;5030486;28;20025;-57
2021/04/10 11:41:56;;;;;;;44.78;33.05;;;9.70;99.90;;;;;;5029141;28;20113;-57
2021/04/10 11:44:23;;;;;;;49.42;35.03;;;9.70;99.90;;;;;;5030397;28;20457;-57
2021/04/10 11:46:59;;;;;;;51.60;35.97;;;9.80;99.90;;;;;;5029465;28;20067;-58
2021/04/10 11:49:28;;;;;;;52.35;36.47;;;9.80;99.90;;;;;;5030707;28;20112;-59
2021/04/10 11:52:05;;;;;;;45.03;33.15;;;9.80;99.90;;;;;;5030616;28;20087;-58
2021/04/10 11:54:35;;;;;;;42.42;31.48;;;9.70;99.90;;;;;;5030202;28;20052;-58
2021/04/10 11:57:01;;;;;;;47.08;34.13;;;9.60;99.90;;;;;;5029364;28;20041;-57
2021/04/10 11:59:35;;;;;;;47.85;35.47;;;9.60;99.90;;;;;;5030759;28;20021;-57
2021/04/10 12:02:04;;;;;;;57.03;40.22;;;9.70;99.90;;;;;;5030778;28;20022;-57
2021/04/10 12:04:34;;;;;;;54.75;38.03;;;9.70;99.90;;;;;;5029149;28;20053;-57
2021/04/10 12:07:07;;;;;;;48.67;36.55;;;9.70;99.90;;;;;;5030574;28;20075;-57
2021/04/10 12:09:43;;;;;;;58.13;39.53;;;9.60;99.90;;;;;;5030614;28;20017;-57
2021/04/10 12:12:12;;;;;;;49.80;35.83;;;9.60;99.90;;;;;;5029285;28;20094;-57
2021/04/10 12:14:41;;;;;;;49.72;35.38;;;9.60;99.90;;;;;;5030514;28;20041;-57
2021/04/10 12:17:07;;;;;;;39.72;30.80;;;9.70;99.90;;;;;;5030390;28;20096;-57
2021/04/10 12:19:33;;;;;;;40.65;30.55;;;9.80;99.90;;;;;;5030381;28;20120;-57
2021/04/10 12:22:00;;;;;;;50.92;34.72;;;10.00;99.90;;;;;;5030455;28;20458;-57
2021/04/10 12:24:26;;;;;;;39.67;31.60;;;10.10;99.90;;;;;;5031635;28;20637;-57
2021/04/10 12:26:51;;;;;;;42.03;30.75;;;10.20;99.90;;;;;;5034247;28;20104;-57
2021/04/10 12:29:17;;;;;;;35.78;27.08;;;10.40;99.90;;;;;;5034150;28;20026;-57
2021/04/10 12:31:43;;;;;;;34.13;27.08;;;10.40;99.90;;;;;;5033772;28;20029;-57
2021/04/10 12:34:09;;;;;;;33.70;26.40;;;10.20;99.90;;;;;;5033465;28;20068;-57
2021/04/10 12:36:34;;;;;;;32.05;25.60;;;10.40;99.90;;;;;;5033791;28;20029;-57
2021/04/10 12:39:01;;;;;;;33.83;25.65;;;10.50;99.90;;;;;;5033507;28;20033;-57
2021/04/10 12:41:26;;;;;;;43.25;29.38;;;10.50;99.90;;;;;;5033543;28;20500;-57
2021/04/10 12:43:52;;;;;;;60.85;42.67;;;10.40;99.90;;;;;;5032141;28;20109;-57
2021/04/10 12:46:19;;;;;;;59.30;42.78;;;10.40;99.90;;;;;;5033104;28;20113;-57
2021/04/10 12:48:45;;;;;;;51.78;40.28;;;10.40;99.90;;;;;;5033473;28;20030;-57